sensor_id;sensor_type;location;lat;lon;timestamp;temperature;humidity
9849;DHT22;4963;51.444;6.528;2023-10-19T00:00:22;11.60;99.90
9849;DHT22;4963;51.444;6.528;2023-10-19T00:02:50;11.60;99.90
9849;DHT22;4963;51.444;6.528;2023-10-19T00:05:21;11.60;99.90
9849;DHT22;4963;51.444;6.528;2023-10-19T00:07:51;11.60;99.90
9849;DHT22;4963;51.444;6.528;2023-10-19T00:10:18;11.60;99.90
9849;DHT22;4963;51.444;6.528;2023-10-19T00:12:46;11.50;99.90
9849;DHT22;4963;51.444;6.528;2023-10-19T00:15:22;11.50;99.90
9849;DHT22;4963;51.444;6.528;2023-10-19T00:17:51;11.60;99.90
9849;DHT22;4963;51.444;6.528;2023-10-19T00:20:23;11.60;99.90
9849;DHT22;4963;51.444;6.528;2023-10-19T00:23:15;11.60;99.90
9849;DHT22;4963;51.444;6.528;2023-10-19T00:25:44;11.60;99.90
9849;DHT22;4963;51.444;6.528;2023-10-19T00:28:16;11.70;99.90
9849;DHT22;4963;51.444;6.528;2023-10-19T00:30:43;11.60;99.90
9849;DHT22;4963;51.444;6.528;2023-10-19T00:33:10;11.70;99.90
9849;DHT22;4963;51.444;6.528;2023-10-19T00:35:44;11.60;99.90
9849;DHT22;4963;51.444;6.528;2023-10-19T00:38:17;11.60;99.90
9849;DHT22;4963;51.444;6.528;2023-10-19T00:40:53;11.70;99.90
9849;DHT22;4963;51.444;6.528;2023-10-19T00:43:29;11.70;99.90
9849;DHT22;4963;51.444;6.528;2023-10-19T00:46:00;11.70;99.90
9849;DHT22;4963;51.444;6.528;2023-10-19T00:48:34;11.70;99.90
9849;DHT22;4963;51.444;6.528;2023-10-19T00:51:03;11.70;99.90
9849;DHT22;4963;51.444;6.528;2023-10-19T00:53:36;11.70;99.90
9849;DHT22;4963;51.444;6.528;2023-10-19T00:56:07;11.70;99.90
9849;DHT22;4963;51.444;6.528;2023-10-19T00:58:35;11.80;99.90
9849;DHT22;4963;51.444;6.528;2023-10-19T01:01:05;11.80;99.90
9849;DHT22;4963;51.444;6.528;2023-10-19T01:03:34;11.80;99.90
9849;DHT22;4963;51.444;6.528;2023-10-19T01:06:05;11.80;99.90
9849;DHT22;4963;51.444;6.528;2023-10-19T01:08:39;11.80;99.90
9849;DHT22;4963;51.444;6.528;2023-10-19T01:11:10;11.80;99.90
9849;DHT22;4963;51.444;6.528;2023-10-19T01:13:41;11.80;99.90
9849;DHT22;4963;51.444;6.528;2023-10-19T01:16:13;11.90;99.90
9849;DHT22;4963;51.444;6.528;2023-10-19T01:18:47;11.90;99.90
9849;DHT22;4963;51.444;6.528;2023-10-19T01:21:21;11.80;99.90
9849;DHT22;4963;51.444;6.528;2023-10-19T01:23:52;11.80;99.90
9849;DHT22;4963;51.444;6.528;2023-10-19T01:26:19;11.90;99.90
9849;DHT22;4963;51.444;6.528;2023-10-19T01:28:52;11.90;99.90
9849;DHT22;4963;51.444;6.528;2023-10-19T01:31:31;11.80;99.90
9849;DHT22;4963;51.444;6.528;2023-10-19T01:34:03;11.90;99.90
9849;DHT22;4963;51.444;6.528;2023-10-19T01:36:31;11.90;99.90
9849;DHT22;4963;51.444;6.528;2023-10-19T01:39:04;11.90;99.90
9849;DHT22;4963;51.444;6.528;2023-10-19T01:41:35;11.90;99.90
9849;DHT22;4963;51.444;6.528;2023-10-19T01:44:02;11.90;99.90
9849;DHT22;4963;51.444;6.528;2023-10-19T01:46:31;12.00;99.90
9849;DHT22;4963;51.444;6.528;2023-10-19T01:48:59;12.00;99.90
9849;DHT22;4963;51.444;6.528;2023-10-19T01:51:28;12.00;99.90
9849;DHT22;4963;51.444;6.528;2023-10-19T01:53:55;11.90;99.90
9849;DHT22;4963;51.444;6.528;2023-10-19T01:56:26;11.90;99.90
9849;DHT22;4963;51.444;6.528;2023-10-19T01:58:53;12.00;99.90
9849;DHT22;4963;51.444;6.528;2023-10-19T02:01:20;12.00;99.90
9849;DHT22;4963;51.444;6.528;2023-10-19T02:03:55;12.10;99.90
9849;DHT22;4963;51.444;6.528;2023-10-19T02:06:25;12.10;99.90
9849;DHT22;4963;51.444;6.528;2023-10-19T02:09:00;12.10;99.90
9849;DHT22;4963;51.444;6.528;2023-10-19T02:11:36;12.10;99.90
9849;DHT22;4963;51.444;6.528;2023-10-19T02:14:03;12.20;99.90
9849;DHT22;4963;51.444;6.528;2023-10-19T02:16:39;12.20;99.90
9849;DHT22;4963;51.444;6.528;2023-10-19T02:19:06;12.20;99.90
9849;DHT22;4963;51.444;6.528;2023-10-19T02:21:33;12.20;99.90
9849;DHT22;4963;51.444;6.528;2023-10-19T02:24:05;12.20;99.90
9849;DHT22;4963;51.444;6.528;2023-10-19T02:26:33;12.20;99.90
9849;DHT22;4963;51.444;6.528;2023-10-19T02:29:00;12.20;99.90
9849;DHT22;4963;51.444;6.528;2023-10-19T02:31:33;12.20;99.90
9849;DHT22;4963;51.444;6.528;2023-10-19T02:33:59;12.20;99.90
9849;DHT22;4963;51.444;6.528;2023-10-19T02:36:26;12.20;99.90
9849;DHT22;4963;51.444;6.528;2023-10-19T02:38:54;12.20;99.90
9849;DHT22;4963;51.444;6.528;2023-10-19T02:41:24;12.20;99.90
9849;DHT22;4963;51.444;6.528;2023-10-19T02:43:52;12.30;99.90
9849;DHT22;4963;51.444;6.528;2023-10-19T02:46:28;12.30;99.90
9849;DHT22;4963;51.444;6.528;2023-10-19T02:48:54;12.30;99.90
9849;DHT22;4963;51.444;6.528;2023-10-19T02:51:21;12.30;99.90
9849;DHT22;4963;51.444;6.528;2023-10-19T02:53:47;12.30;99.90
9849;DHT22;4963;51.444;6.528;2023-10-19T02:56:15;12.30;99.90
9849;DHT22;4963;51.444;6.528;2023-10-19T02:58:43;12.30;99.90
9849;DHT22;4963;51.444;6.528;2023-10-19T03:01:15;12.30;99.90
9849;DHT22;4963;51.444;6.528;2023-10-19T03:03:46;12.40;99.90
9849;DHT22;4963;51.444;6.528;2023-10-19T03:06:17;12.40;99.90
9849;DHT22;4963;51.444;6.528;2023-10-19T03:08:45;12.40;99.90
9849;DHT22;4963;51.444;6.528;2023-10-19T03:11:11;12.40;99.90
9849;DHT22;4963;51.444;6.528;2023-10-19T03:13:39;12.50;99.90
9849;DHT22;4963;51.444;6.528;2023-10-19T03:16:09;12.50;99.90
9849;DHT22;4963;51.444;6.528;2023-10-19T03:18:35;12.60;99.90
9849;DHT22;4963;51.444;6.528;2023-10-19T03:21:03;12.60;99.90
9849;DHT22;4963;51.444;6.528;2023-10-19T03:23:29;12.70;99.90
9849;DHT22;4963;51.444;6.528;2023-10-19T03:26:00;12.70;99.90
9849;DHT22;4963;51.444;6.528;2023-10-19T03:28:49;12.70;99.90
9849;DHT22;4963;51.444;6.528;2023-10-19T03:31:21;12.70;99.90
9849;DHT22;4963;51.444;6.528;2023-10-19T03:33:48;12.70;99.90
9849;DHT22;4963;51.444;6.528;2023-10-19T03:36:21;12.70;99.90
9849;DHT22;4963;51.444;6.528;2023-10-19T03:38:49;12.70;99.90
9849;DHT22;4963;51.444;6.528;2023-10-19T03:41:16;12.70;99.90
9849;DHT22;4963;51.444;6.528;2023-10-19T03:43:48;12.60;99.90
9849;DHT22;4963;51.444;6.528;2023-10-19T03:46:17;12.70;99.90
9849;DHT22;4963;51.444;6.528;2023-10-19T03:48:50;12.60;99.90
9849;DHT22;4963;51.444;6.528;2023-10-19T03:51:17;12.60;99.90
9849;DHT22;4963;51.444;6.528;2023-10-19T03:53:45;12.50;99.90
9849;DHT22;4963;51.444;6.528;2023-10-19T03:56:20;12.50;99.90
9849;DHT22;4963;51.444;6.528;2023-10-19T03:58:49;12.60;99.90
9849;DHT22;4963;51.444;6.528;2023-10-19T04:01:16;12.60;99.90
9849;DHT22;4963;51.444;6.528;2023-10-19T04:03:45;12.60;99.90
9849;DHT22;4963;51.444;6.528;2023-10-19T04:06:12;12.60;99.90
9849;DHT22;4963;51.444;6.528;2023-10-19T04:08:40;12.50;99.90
9849;DHT22;4963;51.444;6.528;2023-10-19T04:11:09;12.60;99.90
9849;DHT22;4963;51.444;6.528;2023-10-19T04:13:48;12.60;99.90
9849;DHT22;4963;51.444;6.528;2023-10-19T04:16:18;12.50;99.90
9849;DHT22;4963;51.444;6.528;2023-10-19T04:18:46;12.60;99.90
9849;DHT22;4963;51.444;6.528;2023-10-19T04:21:14;12.60;99.90
9849;DHT22;4963;51.444;6.528;2023-10-19T04:23:41;12.50;99.90
9849;DHT22;4963;51.444;6.528;2023-10-19T04:26:09;12.60;99.90
9849;DHT22;4963;51.444;6.528;2023-10-19T04:28:40;12.60;99.90
9849;DHT22;4963;51.444;6.528;2023-10-19T04:31:15;12.60;99.90
9849;DHT22;4963;51.444;6.528;2023-10-19T04:33:42;12.60;99.90
9849;DHT22;4963;51.444;6.528;2023-10-19T04:36:12;12.60;99.90
9849;DHT22;4963;51.444;6.528;2023-10-19T04:38:39;12.60;99.90
9849;DHT22;4963;51.444;6.528;2023-10-19T04:41:11;12.60;99.90
9849;DHT22;4963;51.444;6.528;2023-10-19T04:43:39;12.70;99.90
9849;DHT22;4963;51.444;6.528;2023-10-19T04:46:10;12.70;99.90
9849;DHT22;4963;51.444;6.528;2023-10-19T04:48:38;12.70;99.90
9849;DHT22;4963;51.444;6.528;2023-10-19T04:51:07;12.70;99.90
9849;DHT22;4963;51.444;6.528;2023-10-19T04:53:36;12.70;99.90
9849;DHT22;4963;51.444;6.528;2023-10-19T04:56:04;12.70;99.90
9849;DHT22;4963;51.444;6.528;2023-10-19T04:58:33;12.70;99.90
9849;DHT22;4963;51.444;6.528;2023-10-19T05:01:02;12.70;99.90
9849;DHT22;4963;51.444;6.528;2023-10-19T05:03:29;12.70;99.90
9849;DHT22;4963;51.444;6.528;2023-10-19T05:05:56;12.70;99.90
9849;DHT22;4963;51.444;6.528;2023-10-19T05:08:23;12.70;99.90
9849;DHT22;4963;51.444;6.528;2023-10-19T05:10:52;12.70;99.90
9849;DHT22;4963;51.444;6.528;2023-10-19T05:13:20;12.70;99.90
9849;DHT22;4963;51.444;6.528;2023-10-19T05:15:48;12.70;99.90
9849;DHT22;4963;51.444;6.528;2023-10-19T05:18:15;12.70;99.90
9849;DHT22;4963;51.444;6.528;2023-10-19T05:20:41;12.70;99.90
9849;DHT22;4963;51.444;6.528;2023-10-19T05:23:09;12.60;99.90
9849;DHT22;4963;51.444;6.528;2023-10-19T05:25:36;12.60;99.90
9849;DHT22;4963;51.444;6.528;2023-10-19T05:28:04;12.60;99.90
9849;DHT22;4963;51.444;6.528;2023-10-19T05:30:35;12.60;99.90
9849;DHT22;4963;51.444;6.528;2023-10-19T05:33:04;12.60;99.90
9849;DHT22;4963;51.444;6.528;2023-10-19T05:35:31;12.60;99.90
9849;DHT22;4963;51.444;6.528;2023-10-19T05:38:00;12.60;99.90
9849;DHT22;4963;51.444;6.528;2023-10-19T05:40:28;12.60;99.90
9849;DHT22;4963;51.444;6.528;2023-10-19T05:42:56;12.60;99.90
9849;DHT22;4963;51.444;6.528;2023-10-19T05:45:24;12.60;99.90
9849;DHT22;4963;51.444;6.528;2023-10-19T05:47:52;12.50;99.90
9849;DHT22;4963;51.444;6.528;2023-10-19T05:50:21;12.50;99.90
9849;DHT22;4963;51.444;6.528;2023-10-19T05:52:48;12.50;99.90
9849;DHT22;4963;51.444;6.528;2023-10-19T05:55:17;12.50;99.90
9849;DHT22;4963;51.444;6.528;2023-10-19T05:57:47;12.50;99.90
9849;DHT22;4963;51.444;6.528;2023-10-19T06:00:15;12.40;99.90
9849;DHT22;4963;51.444;6.528;2023-10-19T06:02:44;12.50;99.90
9849;DHT22;4963;51.444;6.528;2023-10-19T06:05:12;12.50;99.90
9849;DHT22;4963;51.444;6.528;2023-10-19T06:07:42;12.50;99.90
9849;DHT22;4963;51.444;6.528;2023-10-19T06:10:11;12.50;99.90
9849;DHT22;4963;51.444;6.528;2023-10-19T06:12:42;12.50;99.90
9849;DHT22;4963;51.444;6.528;2023-10-19T06:15:10;12.50;99.90
9849;DHT22;4963;51.444;6.528;2023-10-19T06:17:38;12.50;99.90
9849;DHT22;4963;51.444;6.528;2023-10-19T06:20:07;12.50;99.90
9849;DHT22;4963;51.444;6.528;2023-10-19T06:22:34;12.50;99.90
9849;DHT22;4963;51.444;6.528;2023-10-19T06:25:03;12.50;99.90
9849;DHT22;4963;51.444;6.528;2023-10-19T06:27:32;12.60;99.90
9849;DHT22;4963;51.444;6.528;2023-10-19T06:29:59;12.60;99.90
9849;DHT22;4963;51.444;6.528;2023-10-19T06:32:26;12.50;99.90
9849;DHT22;4963;51.444;6.528;2023-10-19T06:34:53;12.50;99.90
9849;DHT22;4963;51.444;6.528;2023-10-19T06:37:20;12.60;99.90
9849;DHT22;4963;51.444;6.528;2023-10-19T06:39:47;12.60;99.90
9849;DHT22;4963;51.444;6.528;2023-10-19T06:42:17;12.60;99.90
9849;DHT22;4963;51.444;6.528;2023-10-19T06:44:44;12.60;99.90
9849;DHT22;4963;51.444;6.528;2023-10-19T06:47:11;12.60;99.90
9849;DHT22;4963;51.444;6.528;2023-10-19T06:49:39;12.60;99.90
9849;DHT22;4963;51.444;6.528;2023-10-19T06:52:06;12.60;99.90
9849;DHT22;4963;51.444;6.528;2023-10-19T06:54:37;12.60;99.90
9849;DHT22;4963;51.444;6.528;2023-10-19T06:57:04;12.60;99.90
9849;DHT22;4963;51.444;6.528;2023-10-19T06:59:35;12.60;99.90
9849;DHT22;4963;51.444;6.528;2023-10-19T07:02:02;12.70;99.90
9849;DHT22;4963;51.444;6.528;2023-10-19T07:04:29;12.70;99.90
9849;DHT22;4963;51.444;6.528;2023-10-19T07:06:57;12.70;99.90
9849;DHT22;4963;51.444;6.528;2023-10-19T07:09:24;12.70;99.90
9849;DHT22;4963;51.444;6.528;2023-10-19T07:11:50;12.70;99.90
9849;DHT22;4963;51.444;6.528;2023-10-19T07:14:20;12.80;99.90
9849;DHT22;4963;51.444;6.528;2023-10-19T07:16:49;12.80;99.90
9849;DHT22;4963;51.444;6.528;2023-10-19T07:19:17;12.80;99.90
9849;DHT22;4963;51.444;6.528;2023-10-19T07:21:45;12.80;99.90
9849;DHT22;4963;51.444;6.528;2023-10-19T07:24:15;12.80;99.90
9849;DHT22;4963;51.444;6.528;2023-10-19T07:26:44;12.80;99.90
9849;DHT22;4963;51.444;6.528;2023-10-19T07:29:19;12.80;99.90
9849;DHT22;4963;51.444;6.528;2023-10-19T07:31:46;12.90;99.90
9849;DHT22;4963;51.444;6.528;2023-10-19T07:34:14;12.90;99.90
9849;DHT22;4963;51.444;6.528;2023-10-19T07:36:42;12.90;99.90
9849;DHT22;4963;51.444;6.528;2023-10-19T07:39:09;13.00;99.90
9849;DHT22;4963;51.444;6.528;2023-10-19T07:41:44;13.00;99.90
9849;DHT22;4963;51.444;6.528;2023-10-19T07:44:11;13.10;99.90
9849;DHT22;4963;51.444;6.528;2023-10-19T07:46:38;13.10;99.90
9849;DHT22;4963;51.444;6.528;2023-10-19T07:49:05;13.20;99.90
9849;DHT22;4963;51.444;6.528;2023-10-19T07:51:34;13.20;99.90
9849;DHT22;4963;51.444;6.528;2023-10-19T07:54:01;13.30;99.90
9849;DHT22;4963;51.444;6.528;2023-10-19T07:56:29;13.20;99.90
9849;DHT22;4963;51.444;6.528;2023-10-19T07:58:56;13.30;99.90
9849;DHT22;4963;51.444;6.528;2023-10-19T08:01:22;13.30;99.90
9849;DHT22;4963;51.444;6.528;2023-10-19T08:03:49;13.30;99.90
9849;DHT22;4963;51.444;6.528;2023-10-19T08:06:17;13.30;99.90
9849;DHT22;4963;51.444;6.528;2023-10-19T08:08:45;13.40;99.90
9849;DHT22;4963;51.444;6.528;2023-10-19T08:11:12;13.40;99.90
9849;DHT22;4963;51.444;6.528;2023-10-19T08:13:39;13.40;99.90
9849;DHT22;4963;51.444;6.528;2023-10-19T08:16:06;13.50;99.90
9849;DHT22;4963;51.444;6.528;2023-10-19T08:18:33;13.50;99.90
9849;DHT22;4963;51.444;6.528;2023-10-19T08:21:01;13.50;99.90
9849;DHT22;4963;51.444;6.528;2023-10-19T08:23:28;13.60;99.90
9849;DHT22;4963;51.444;6.528;2023-10-19T08:25:58;13.60;99.90
9849;DHT22;4963;51.444;6.528;2023-10-19T08:28:25;13.60;99.90
9849;DHT22;4963;51.444;6.528;2023-10-19T08:30:53;13.60;99.90
9849;DHT22;4963;51.444;6.528;2023-10-19T08:33:27;13.70;99.90
9849;DHT22;4963;51.444;6.528;2023-10-19T08:35:55;13.70;99.90
9849;DHT22;4963;51.444;6.528;2023-10-19T08:38:23;13.80;99.90
9849;DHT22;4963;51.444;6.528;2023-10-19T08:41:00;13.70;99.90
9849;DHT22;4963;51.444;6.528;2023-10-19T08:43:28;13.80;99.90
9849;DHT22;4963;51.444;6.528;2023-10-19T08:45:59;13.80;99.90
9849;DHT22;4963;51.444;6.528;2023-10-19T08:48:26;13.90;99.90
9849;DHT22;4963;51.444;6.528;2023-10-19T08:50:54;13.90;99.90
9849;DHT22;4963;51.444;6.528;2023-10-19T08:53:22;13.90;99.90
9849;DHT22;4963;51.444;6.528;2023-10-19T08:55:50;14.00;99.90
9849;DHT22;4963;51.444;6.528;2023-10-19T08:58:21;14.00;99.90
9849;DHT22;4963;51.444;6.528;2023-10-19T09:00:50;14.10;99.90
9849;DHT22;4963;51.444;6.528;2023-10-19T09:03:19;14.20;99.90
9849;DHT22;4963;51.444;6.528;2023-10-19T09:05:47;14.20;99.90
9849;DHT22;4963;51.444;6.528;2023-10-19T09:08:18;14.30;99.90
9849;DHT22;4963;51.444;6.528;2023-10-19T09:10:48;14.30;99.90
9849;DHT22;4963;51.444;6.528;2023-10-19T09:13:17;14.30;99.90
9849;DHT22;4963;51.444;6.528;2023-10-19T09:15:46;14.40;99.90
9849;DHT22;4963;51.444;6.528;2023-10-19T09:18:15;14.40;99.90
9849;DHT22;4963;51.444;6.528;2023-10-19T09:20:42;14.50;99.90
9849;DHT22;4963;51.444;6.528;2023-10-19T09:23:19;14.50;99.90
9849;DHT22;4963;51.444;6.528;2023-10-19T09:25:47;14.60;99.90
9849;DHT22;4963;51.444;6.528;2023-10-19T09:28:14;14.70;99.90
9849;DHT22;4963;51.444;6.528;2023-10-19T09:30:42;14.70;99.90
9849;DHT22;4963;51.444;6.528;2023-10-19T09:33:11;14.80;99.90
9849;DHT22;4963;51.444;6.528;2023-10-19T09:35:40;15.00;99.90
9849;DHT22;4963;51.444;6.528;2023-10-19T09:38:08;15.10;99.90
9849;DHT22;4963;51.444;6.528;2023-10-19T09:40:36;15.30;99.90
9849;DHT22;4963;51.444;6.528;2023-10-19T09:43:05;15.50;99.90
9849;DHT22;4963;51.444;6.528;2023-10-19T09:45:37;15.60;99.90
9849;DHT22;4963;51.444;6.528;2023-10-19T09:48:08;15.70;99.90
9849;DHT22;4963;51.444;6.528;2023-10-19T09:50:44;15.80;99.90
9849;DHT22;4963;51.444;6.528;2023-10-19T09:53:14;15.90;99.90
9849;DHT22;4963;51.444;6.528;2023-10-19T09:55:41;15.90;99.90
9849;DHT22;4963;51.444;6.528;2023-10-19T09:58:12;16.00;99.90
9849;DHT22;4963;51.444;6.528;2023-10-19T10:00:43;16.00;99.90
9849;DHT22;4963;51.444;6.528;2023-10-19T10:06:16;16.00;99.90
9849;DHT22;4963;51.444;6.528;2023-10-19T10:08:47;16.10;99.90
9849;DHT22;4963;51.444;6.528;2023-10-19T10:11:22;16.10;99.90
9849;DHT22;4963;51.444;6.528;2023-10-19T10:13:52;16.20;99.90
9849;DHT22;4963;51.444;6.528;2023-10-19T10:16:22;16.40;99.90
9849;DHT22;4963;51.444;6.528;2023-10-19T10:18:51;16.50;99.90
9849;DHT22;4963;51.444;6.528;2023-10-19T10:21:23;16.60;99.90
9849;DHT22;4963;51.444;6.528;2023-10-19T10:23:52;16.60;99.90
9849;DHT22;4963;51.444;6.528;2023-10-19T10:26:21;16.70;99.90
9849;DHT22;4963;51.444;6.528;2023-10-19T10:29:07;16.80;99.90
9849;DHT22;4963;51.444;6.528;2023-10-19T10:31:35;16.80;99.90
9849;DHT22;4963;51.444;6.528;2023-10-19T10:34:08;16.90;99.90
9849;DHT22;4963;51.444;6.528;2023-10-19T10:37:00;16.90;99.90
9849;DHT22;4963;51.444;6.528;2023-10-19T10:39:29;17.00;99.90
9849;DHT22;4963;51.444;6.528;2023-10-19T10:41:57;17.00;99.90
9849;DHT22;4963;51.444;6.528;2023-10-19T10:44:40;17.00;99.90
9849;DHT22;4963;51.444;6.528;2023-10-19T10:47:09;17.00;99.90
9849;DHT22;4963;51.444;6.528;2023-10-19T10:49:57;17.00;99.90
9849;DHT22;4963;51.444;6.528;2023-10-19T10:52:27;17.00;99.90
9849;DHT22;4963;51.444;6.528;2023-10-19T10:54:55;17.10;99.90
9849;DHT22;4963;51.444;6.528;2023-10-19T10:57:22;17.10;99.90
9849;DHT22;4963;51.444;6.528;2023-10-19T11:00:01;17.20;99.90
9849;DHT22;4963;51.444;6.528;2023-10-19T11:02:30;17.20;99.90
9849;DHT22;4963;51.444;6.528;2023-10-19T11:04:58;17.30;99.90
9849;DHT22;4963;51.444;6.528;2023-10-19T11:07:27;17.40;99.90
9849;DHT22;4963;51.444;6.528;2023-10-19T11:09:55;17.50;99.90
9849;DHT22;4963;51.444;6.528;2023-10-19T11:12:22;17.60;99.90
9849;DHT22;4963;51.444;6.528;2023-10-19T11:14:53;17.60;99.90
9849;DHT22;4963;51.444;6.528;2023-10-19T11:17:20;17.70;99.90
9849;DHT22;4963;51.444;6.528;2023-10-19T11:19:54;17.70;99.90
9849;DHT22;4963;51.444;6.528;2023-10-19T11:22:23;17.70;99.90
9849;DHT22;4963;51.444;6.528;2023-10-19T11:24:53;17.70;99.90
9849;DHT22;4963;51.444;6.528;2023-10-19T11:27:25;17.70;99.90
9849;DHT22;4963;51.444;6.528;2023-10-19T11:29:56;17.70;99.90
9849;DHT22;4963;51.444;6.528;2023-10-19T11:32:23;17.70;99.90
9849;DHT22;4963;51.444;6.528;2023-10-19T11:34:52;17.60;99.90
9849;DHT22;4963;51.444;6.528;2023-10-19T11:37:18;17.70;99.90
9849;DHT22;4963;51.444;6.528;2023-10-19T11:39:45;17.60;99.90
9849;DHT22;4963;51.444;6.528;2023-10-19T11:42:13;17.60;99.90
9849;DHT22;4963;51.444;6.528;2023-10-19T11:44:40;17.60;99.90
9849;DHT22;4963;51.444;6.528;2023-10-19T11:47:07;17.60;99.90
9849;DHT22;4963;51.444;6.528;2023-10-19T11:49:34;17.50;99.90
9849;DHT22;4963;51.444;6.528;2023-10-19T11:52:04;17.60;99.90
9849;DHT22;4963;51.444;6.528;2023-10-19T11:54:33;17.50;99.90
9849;DHT22;4963;51.444;6.528;2023-10-19T11:56:59;17.50;99.90
9849;DHT22;4963;51.444;6.528;2023-10-19T11:59:28;17.50;99.90
9849;DHT22;4963;51.444;6.528;2023-10-19T12:01:55;17.50;99.90
9849;DHT22;4963;51.444;6.528;2023-10-19T12:04:24;17.50;99.90
9849;DHT22;4963;51.444;6.528;2023-10-19T12:06:51;17.50;99.90
9849;DHT22;4963;51.444;6.528;2023-10-19T12:09:18;17.50;99.90
9849;DHT22;4963;51.444;6.528;2023-10-19T12:11:49;17.50;99.90
9849;DHT22;4963;51.444;6.528;2023-10-19T12:14:18;17.50;99.90
9849;DHT22;4963;51.444;6.528;2023-10-19T12:16:48;17.40;99.90
9849;DHT22;4963;51.444;6.528;2023-10-19T12:19:15;17.40;99.90
9849;DHT22;4963;51.444;6.528;2023-10-19T12:21:44;17.40;99.90
9849;DHT22;4963;51.444;6.528;2023-10-19T12:24:11;17.50;99.90
9849;DHT22;4963;51.444;6.528;2023-10-19T12:26:38;17.50;99.90
9849;DHT22;4963;51.444;6.528;2023-10-19T12:29:05;17.40;99.90
9849;DHT22;4963;51.444;6.528;2023-10-19T12:31:35;17.40;99.90
9849;DHT22;4963;51.444;6.528;2023-10-19T12:34:06;17.50;99.90
9849;DHT22;4963;51.444;6.528;2023-10-19T12:36:34;17.40;99.90
9849;DHT22;4963;51.444;6.528;2023-10-19T12:39:01;17.40;99.90
9849;DHT22;4963;51.444;6.528;2023-10-19T12:41:30;17.40;99.90
9849;DHT22;4963;51.444;6.528;2023-10-19T12:43:58;17.40;99.90
9849;DHT22;4963;51.444;6.528;2023-10-19T12:46:27;17.40;99.90
9849;DHT22;4963;51.444;6.528;2023-10-19T12:48:55;17.40;99.90
9849;DHT22;4963;51.444;6.528;2023-10-19T12:51:24;17.40;99.90
9849;DHT22;4963;51.444;6.528;2023-10-19T12:53:52;17.40;99.90
9849;DHT22;4963;51.444;6.528;2023-10-19T12:56:19;17.30;99.90
9849;DHT22;4963;51.444;6.528;2023-10-19T12:58:46;17.30;99.90
9849;DHT22;4963;51.444;6.528;2023-10-19T13:01:13;17.30;99.90
9849;DHT22;4963;51.444;6.528;2023-10-19T13:03:43;17.30;99.90
9849;DHT22;4963;51.444;6.528;2023-10-19T13:06:11;17.20;99.90
9849;DHT22;4963;51.444;6.528;2023-10-19T13:08:39;17.20;99.90
9849;DHT22;4963;51.444;6.528;2023-10-19T13:11:06;17.30;99.90
9849;DHT22;4963;51.444;6.528;2023-10-19T13:13:33;17.30;99.90
9849;DHT22;4963;51.444;6.528;2023-10-19T13:16:02;17.20;99.90
9849;DHT22;4963;51.444;6.528;2023-10-19T13:18:31;17.20;99.90
9849;DHT22;4963;51.444;6.528;2023-10-19T13:20:59;17.10;99.90
9849;DHT22;4963;51.444;6.528;2023-10-19T13:23:30;17.20;99.90
9849;DHT22;4963;51.444;6.528;2023-10-19T13:25:59;17.10;99.90
9849;DHT22;4963;51.444;6.528;2023-10-19T13:28:42;17.10;99.90
9849;DHT22;4963;51.444;6.528;2023-10-19T13:31:09;17.10;99.90
9849;DHT22;4963;51.444;6.528;2023-10-19T13:33:39;17.00;99.90
9849;DHT22;4963;51.444;6.528;2023-10-19T13:36:07;17.00;99.90
9849;DHT22;4963;51.444;6.528;2023-10-19T13:38:34;17.00;99.90
9849;DHT22;4963;51.444;6.528;2023-10-19T13:41:04;17.00;99.90
9849;DHT22;4963;51.444;6.528;2023-10-19T13:43:35;16.90;99.90
9849;DHT22;4963;51.444;6.528;2023-10-19T13:46:02;16.90;99.90
9849;DHT22;4963;51.444;6.528;2023-10-19T13:48:30;16.80;99.90
9849;DHT22;4963;51.444;6.528;2023-10-19T13:50:57;16.80;99.90
9849;DHT22;4963;51.444;6.528;2023-10-19T13:53:31;16.70;99.90
9849;DHT22;4963;51.444;6.528;2023-10-19T13:55:58;16.70;99.90
9849;DHT22;4963;51.444;6.528;2023-10-19T13:58:26;16.70;99.90
9849;DHT22;4963;51.444;6.528;2023-10-19T14:00:53;16.70;99.90
9849;DHT22;4963;51.444;6.528;2023-10-19T14:03:20;16.70;99.90
9849;DHT22;4963;51.444;6.528;2023-10-19T14:05:47;16.60;99.90
9849;DHT22;4963;51.444;6.528;2023-10-19T14:08:16;16.60;99.90
9849;DHT22;4963;51.444;6.528;2023-10-19T14:10:43;16.60;99.90
9849;DHT22;4963;51.444;6.528;2023-10-19T14:13:10;16.60;99.90
9849;DHT22;4963;51.444;6.528;2023-10-19T14:15:39;16.60;99.90
9849;DHT22;4963;51.444;6.528;2023-10-19T14:18:06;16.60;99.90
9849;DHT22;4963;51.444;6.528;2023-10-19T14:20:33;16.60;99.90
9849;DHT22;4963;51.444;6.528;2023-10-19T14:23:01;16.60;99.90
9849;DHT22;4963;51.444;6.528;2023-10-19T14:25:30;16.70;99.90
9849;DHT22;4963;51.444;6.528;2023-10-19T14:27:57;16.70;99.90
9849;DHT22;4963;51.444;6.528;2023-10-19T14:30:26;16.60;99.90
9849;DHT22;4963;51.444;6.528;2023-10-19T14:32:55;16.60;99.90
9849;DHT22;4963;51.444;6.528;2023-10-19T14:35:23;16.50;99.90
9849;DHT22;4963;51.444;6.528;2023-10-19T14:37:52;16.50;99.90
9849;DHT22;4963;51.444;6.528;2023-10-19T14:40:22;16.50;99.90
9849;DHT22;4963;51.444;6.528;2023-10-19T14:42:51;16.50;99.90
9849;DHT22;4963;51.444;6.528;2023-10-19T14:45:20;16.40;99.90
9849;DHT22;4963;51.444;6.528;2023-10-19T14:47:52;16.40;99.90
9849;DHT22;4963;51.444;6.528;2023-10-19T14:50:21;16.40;99.90
9849;DHT22;4963;51.444;6.528;2023-10-19T14:52:50;16.40;99.90
9849;DHT22;4963;51.444;6.528;2023-10-19T14:55:17;16.40;99.90
9849;DHT22;4963;51.444;6.528;2023-10-19T14:57:45;16.30;99.90
9849;DHT22;4963;51.444;6.528;2023-10-19T15:00:15;16.40;99.90
9849;DHT22;4963;51.444;6.528;2023-10-19T15:02:48;16.40;99.90
9849;DHT22;4963;51.444;6.528;2023-10-19T15:05:16;16.30;99.90
9849;DHT22;4963;51.444;6.528;2023-10-19T15:07:46;16.30;99.90
9849;DHT22;4963;51.444;6.528;2023-10-19T15:10:18;16.30;99.90
9849;DHT22;4963;51.444;6.528;2023-10-19T15:12:46;16.30;99.90
9849;DHT22;4963;51.444;6.528;2023-10-19T15:15:13;16.30;99.90
9849;DHT22;4963;51.444;6.528;2023-10-19T15:17:40;16.30;99.90
9849;DHT22;4963;51.444;6.528;2023-10-19T15:20:10;16.30;99.90
9849;DHT22;4963;51.444;6.528;2023-10-19T15:22:37;16.20;99.90
9849;DHT22;4963;51.444;6.528;2023-10-19T15:25:06;16.30;99.90
9849;DHT22;4963;51.444;6.528;2023-10-19T15:27:34;16.20;99.90
9849;DHT22;4963;51.444;6.528;2023-10-19T15:30:01;16.20;99.90
9849;DHT22;4963;51.444;6.528;2023-10-19T15:32:28;16.20;99.90
9849;DHT22;4963;51.444;6.528;2023-10-19T15:34:56;16.20;99.90
9849;DHT22;4963;51.444;6.528;2023-10-19T15:37:23;16.30;99.90
9849;DHT22;4963;51.444;6.528;2023-10-19T15:39:50;16.30;99.90
9849;DHT22;4963;51.444;6.528;2023-10-19T15:42:19;16.20;99.90
9849;DHT22;4963;51.444;6.528;2023-10-19T15:44:47;16.20;99.90
9849;DHT22;4963;51.444;6.528;2023-10-19T15:47:14;16.20;99.90
9849;DHT22;4963;51.444;6.528;2023-10-19T15:49:46;16.20;99.90
9849;DHT22;4963;51.444;6.528;2023-10-19T15:52:14;16.20;99.90
9849;DHT22;4963;51.444;6.528;2023-10-19T15:54:44;16.20;99.90
9849;DHT22;4963;51.444;6.528;2023-10-19T15:57:10;16.20;99.90
9849;DHT22;4963;51.444;6.528;2023-10-19T15:59:39;16.30;99.90
9849;DHT22;4963;51.444;6.528;2023-10-19T16:02:06;16.20;99.90
9849;DHT22;4963;51.444;6.528;2023-10-19T16:04:33;16.20;99.90
9849;DHT22;4963;51.444;6.528;2023-10-19T16:06:59;16.20;99.90
9849;DHT22;4963;51.444;6.528;2023-10-19T16:09:26;16.30;99.90
9849;DHT22;4963;51.444;6.528;2023-10-19T16:11:53;16.30;99.90
9849;DHT22;4963;51.444;6.528;2023-10-19T16:14:21;16.30;99.90
9849;DHT22;4963;51.444;6.528;2023-10-19T16:16:49;16.30;99.90